createdAt,value
2023-05-19T00:03:28.417Z,5.82
2023-05-19T00:07:32.392Z,5.05
2023-05-19T00:11:38.162Z,6.05
2023-05-19T00:15:40.322Z,6.05
2023-05-19T00:19:42.392Z,4.97
2023-05-19T00:23:44.154Z,7.60
2023-05-19T00:27:45.878Z,6.28
2023-05-19T00:31:47.640Z,7.95
2023-05-19T00:35:49.434Z,6.28
2023-05-19T00:39:51.144Z,8.88
2023-05-19T00:43:53.501Z,5.50
2023-05-19T00:47:55.206Z,6.13
2023-05-19T00:51:57.996Z,5.75
2023-05-19T00:56:00.703Z,6.15
2023-05-19T01:00:02.907Z,5.15
2023-05-19T01:04:05.416Z,6.88
2023-05-19T01:08:08.271Z,7.13
2023-05-19T01:12:11.662Z,6.63
2023-05-19T01:16:24.876Z,5.70
2023-05-19T01:20:40.114Z,6.68
2023-05-19T01:24:56.932Z,5.93
2023-05-19T01:29:27.251Z,5.78
2023-05-19T01:33:31.124Z,7.43
2023-05-19T01:37:34.425Z,8.55
2023-05-19T01:41:38.103Z,6.25
2023-05-19T01:45:40.483Z,5.53
2023-05-19T01:49:42.264Z,6.35
2023-05-19T01:53:44.086Z,6.68
2023-05-19T01:57:57.654Z,8.18
2023-05-19T02:02:02.424Z,7.85
2023-05-19T02:06:36.180Z,5.53
2023-05-19T02:10:41.589Z,5.10
2023-05-19T02:14:52.912Z,10.65
2023-05-19T02:18:55.230Z,3.17
2023-05-19T02:22:57.259Z,6.30
2023-05-19T02:26:59.623Z,4.45
2023-05-19T02:31:01.605Z,3.15
2023-05-19T02:35:04.224Z,3.58
2023-05-19T02:39:05.921Z,4.45
2023-05-19T02:43:08.088Z,4.70
2023-05-19T02:47:09.915Z,5.22
2023-05-19T02:51:11.718Z,6.43
2023-05-19T02:55:17.074Z,6.15
2023-05-19T02:59:18.848Z,4.05
2023-05-19T03:03:20.758Z,5.75
2023-05-19T03:07:25.384Z,5.53
2023-05-19T03:11:27.383Z,6.10
2023-05-19T03:15:29.350Z,3.85
2023-05-19T03:19:32.576Z,4.90
2023-05-19T03:23:34.549Z,4.82
2023-05-19T03:27:36.473Z,5.90
2023-05-19T03:31:38.620Z,4.70
2023-05-19T03:35:41.170Z,4.88
2023-05-19T03:39:43.774Z,4.82
2023-05-19T03:43:46.043Z,6.07
2023-05-19T03:47:48.127Z,5.03
2023-05-19T03:52:03.500Z,4.80
2023-05-19T03:56:23.215Z,5.35
2023-05-19T04:00:25.463Z,7.05
2023-05-19T04:04:28.595Z,6.60
2023-05-19T04:08:30.862Z,4.28
2023-05-19T04:12:33.207Z,5.70
2023-05-19T04:16:36.092Z,5.15
2023-05-19T04:20:38.236Z,5.30
2023-05-19T04:24:40.554Z,4.43
2023-05-19T04:28:44.736Z,3.95
2023-05-19T04:32:47.089Z,6.60
2023-05-19T04:36:51.611Z,4.63
2023-05-19T04:40:56.553Z,4.13
2023-05-19T04:44:59.350Z,3.85
2023-05-19T04:49:04.473Z,6.63
2023-05-19T04:53:07.194Z,5.45
2023-05-19T04:57:10.491Z,5.43
2023-05-19T05:01:15.830Z,4.13
2023-05-19T05:05:19.366Z,6.90
2023-05-19T05:09:21.534Z,5.32
2023-05-19T05:13:25.076Z,6.70
2023-05-19T05:17:28.318Z,5.07
2023-05-19T05:21:31.812Z,4.95
2023-05-19T05:25:34.829Z,3.20
2023-05-19T05:29:36.852Z,6.32
2023-05-19T05:33:41.018Z,4.40
2023-05-19T05:37:43.399Z,7.40
2023-05-19T05:41:45.369Z,7.35
2023-05-19T05:45:47.819Z,3.60
2023-05-19T05:49:52.170Z,3.38
2023-05-19T05:53:55.780Z,4.07
2023-05-19T05:58:05.153Z,5.95
2023-05-19T06:02:07.102Z,3.95
2023-05-19T06:06:11.111Z,4.90
2023-05-19T06:10:12.924Z,3.58
2023-05-19T06:14:14.875Z,4.25
2023-05-19T06:18:42.514Z,3.10
2023-05-19T06:22:44.323Z,5.80
2023-05-19T06:26:46.740Z,3.40
2023-05-19T06:30:48.626Z,4.40
2023-05-19T06:35:17.994Z,3.88
2023-05-19T06:39:19.923Z,3.85
2023-05-19T06:43:21.750Z,3.92
2023-05-19T06:47:42.526Z,3.88
2023-05-19T06:51:44.591Z,3.60
2023-05-19T06:55:58.120Z,3.72
2023-05-19T07:00:02.382Z,5.47
2023-05-19T07:04:04.823Z,2.92
2023-05-19T07:08:08.341Z,2.25
2023-05-19T07:12:11.233Z,3.38
2023-05-19T07:16:13.402Z,3.65
2023-05-19T07:20:15.517Z,3.47
2023-05-19T07:24:17.482Z,3.40
2023-05-19T07:28:20.419Z,3.70
2023-05-19T07:32:22.360Z,3.22
2023-05-19T07:36:24.249Z,3.63
2023-05-19T07:40:26.018Z,3.78
2023-05-19T07:44:27.940Z,4.85
2023-05-19T07:48:29.909Z,2.78
2023-05-19T07:52:31.883Z,2.67
2023-05-19T07:56:33.766Z,3.53
2023-05-19T08:00:36.125Z,2.63
2023-05-19T08:04:38.050Z,2.75
2023-05-19T08:08:39.930Z,3.63
2023-05-19T08:12:41.809Z,3.83
2023-05-19T08:16:45.101Z,3.83
2023-05-19T08:20:46.875Z,2.90
2023-05-19T08:24:49.838Z,3.60
2023-05-19T08:28:51.866Z,3.70
2023-05-19T08:32:53.699Z,2.70
2023-05-19T08:36:57.803Z,3.60
2023-05-19T08:40:59.902Z,3.45
2023-05-19T08:45:02.368Z,2.90
2023-05-19T08:49:13.728Z,2.75
2023-05-19T08:57:34.202Z,2.88
2023-05-19T09:05:44.397Z,4.72
2023-05-19T09:09:46.578Z,2.88
2023-05-19T09:13:49.675Z,3.80
2023-05-19T09:17:51.546Z,4.20
2023-05-19T09:22:06.621Z,4.90
2023-05-19T09:26:08.567Z,2.85
2023-05-19T09:30:10.628Z,4.35
2023-05-19T09:34:13.512Z,4.75
2023-05-19T09:38:19.500Z,4.38
2023-05-19T09:42:27.006Z,3.60
2023-05-19T09:46:30.247Z,5.40
2023-05-19T09:50:32.412Z,3.75
2023-05-19T09:54:34.629Z,4.80
2023-05-19T09:58:37.453Z,8.63
2023-05-19T10:02:44.139Z,3.33
2023-05-19T10:06:46.265Z,3.58
2023-05-19T10:10:48.391Z,4.00
2023-05-19T10:14:50.731Z,5.68
2023-05-19T10:18:55.478Z,2.92
2023-05-19T10:22:57.370Z,4.18
2023-05-19T10:27:11.964Z,3.45
2023-05-19T10:31:19.477Z,2.85
2023-05-19T10:35:34.176Z,3.70
2023-05-19T10:39:36.804Z,4.38
2023-05-19T10:44:21.319Z,3.60
2023-05-19T10:48:23.319Z,4.63
2023-05-19T10:52:26.200Z,2.50
2023-05-19T10:56:30.114Z,3.30
2023-05-19T11:00:32.478Z,3.10
2023-05-19T11:04:51.980Z,2.47
2023-05-19T11:09:10.282Z,2.42
2023-05-19T11:13:22.600Z,3.13
2023-05-19T11:17:25.739Z,2.88
2023-05-19T11:21:55.029Z,2.50
2023-05-19T11:25:56.903Z,2.88
2023-05-19T11:30:05.400Z,2.78
2023-05-19T11:34:08.928Z,2.10
2023-05-19T11:38:11.510Z,2.20
2023-05-19T11:42:13.706Z,2.28
2023-05-19T11:46:15.790Z,3.78
2023-05-19T11:50:18.381Z,3.65
2023-05-19T11:54:20.546Z,2.65
2023-05-19T11:58:27.543Z,2.17
2023-05-19T12:02:30.940Z,2.13
2023-05-19T12:06:33.900Z,2.40
2023-05-19T12:10:35.949Z,2.88
2023-05-19T12:14:37.786Z,2.90
2023-05-19T12:18:40.473Z,1.98
2023-05-19T12:22:42.396Z,2.33
2023-05-19T12:26:44.433Z,1.77
2023-05-19T12:30:52.211Z,2.28
2023-05-19T12:34:56.346Z,4.90
2023-05-19T12:38:58.316Z,2.65
2023-05-19T12:43:00.200Z,2.50
2023-05-19T12:47:05.885Z,3.50
2023-05-19T12:51:07.844Z,3.13
2023-05-19T12:55:11.765Z,4.18
2023-05-19T12:59:27.178Z,3.17
2023-05-19T13:03:42.082Z,3.25
2023-05-19T13:08:04.868Z,3.00
2023-05-19T13:12:06.832Z,2.78
2023-05-19T13:16:08.676Z,2.30
2023-05-19T13:20:12.015Z,2.25
2023-05-19T13:24:14.046Z,2.80
2023-05-19T13:28:15.855Z,1.95
2023-05-19T13:32:17.671Z,4.28
2023-05-19T13:36:19.464Z,2.10
2023-05-19T13:40:21.408Z,2.10
2023-05-19T13:44:25.793Z,1.67
2023-05-19T13:48:27.691Z,2.10
2023-05-19T13:52:30.491Z,2.03
2023-05-19T13:56:32.438Z,1.70
2023-05-19T14:00:36.059Z,2.00
2023-05-19T14:04:39.010Z,1.70
2023-05-19T14:08:41.355Z,2.58
2023-05-19T14:13:04.855Z,1.80
2023-05-19T14:17:05.304Z,1.90
2023-05-19T14:21:07.159Z,1.90
2023-05-19T14:25:09.156Z,1.40
2023-05-19T14:29:11.020Z,2.33
2023-05-19T14:33:13.113Z,3.28
2023-05-19T14:37:14.944Z,3.72
2023-05-19T14:41:16.750Z,3.28
2023-05-19T14:45:18.593Z,1.88
2023-05-19T14:49:20.388Z,2.33
2023-05-19T14:53:22.307Z,2.10
2023-05-19T14:57:24.135Z,1.88
2023-05-19T15:01:25.979Z,2.38
2023-05-19T15:05:27.853Z,1.90
2023-05-19T15:09:29.670Z,2.47
2023-05-19T15:13:31.498Z,1.90
2023-05-19T15:17:33.322Z,1.83
2023-05-19T15:21:35.245Z,1.88
2023-05-19T15:25:37.389Z,1.58
2023-05-19T15:29:39.193Z,1.75
2023-05-19T15:33:41.144Z,2.15
2023-05-19T15:37:42.944Z,2.20
2023-05-19T15:41:44.959Z,2.42
2023-05-19T15:45:46.860Z,1.58
2023-05-19T15:49:48.658Z,1.52
2023-05-19T15:53:50.562Z,1.90
2023-05-19T15:57:52.437Z,1.65
2023-05-19T16:01:54.419Z,1.73
2023-05-19T16:05:56.751Z,2.00
2023-05-19T16:09:58.558Z,1.88
2023-05-19T16:14:00.375Z,2.35
2023-05-19T16:18:02.219Z,2.35
2023-05-19T16:22:04.196Z,1.80
2023-05-19T16:26:06.107Z,3.30
2023-05-19T16:30:08.517Z,1.65
2023-05-19T16:34:10.366Z,2.35
2023-05-19T16:38:12.161Z,1.70
2023-05-19T16:42:14.180Z,2.60
2023-05-19T16:46:16.018Z,1.95
2023-05-19T16:50:17.944Z,2.75
2023-05-19T16:54:21.229Z,1.65
2023-05-19T16:58:23.045Z,3.47
2023-05-19T17:02:24.974Z,1.75
2023-05-19T17:06:26.873Z,2.75
2023-05-19T17:10:28.671Z,2.00
2023-05-19T17:14:30.585Z,2.08
2023-05-19T17:18:32.484Z,2.17
2023-05-19T17:22:34.315Z,2.50
2023-05-19T17:26:36.173Z,2.10
2023-05-19T17:30:40.807Z,2.30
2023-05-19T17:34:42.646Z,2.13
2023-05-19T17:38:44.494Z,2.45
2023-05-19T17:42:46.317Z,4.10
2023-05-19T17:46:48.255Z,2.78
2023-05-19T17:50:50.247Z,1.98
2023-05-19T17:54:52.660Z,2.58
2023-05-19T17:58:54.829Z,2.13
2023-05-19T18:02:57.497Z,2.50
2023-05-19T18:07:01.370Z,2.00
2023-05-19T18:11:04.374Z,4.50
2023-05-19T18:15:06.705Z,2.28
2023-05-19T18:19:09.007Z,2.63
2023-05-19T18:23:11.357Z,3.60
2023-05-19T18:27:13.224Z,2.05
2023-05-19T18:31:19.824Z,3.13
2023-05-19T18:35:22.047Z,3.60
2023-05-19T18:39:23.890Z,6.18
2023-05-19T18:43:26.003Z,3.10
2023-05-19T18:47:27.829Z,2.97
2023-05-19T18:51:30.041Z,3.20
2023-05-19T18:55:31.829Z,2.80
2023-05-19T18:59:33.814Z,3.08
2023-05-19T19:03:35.965Z,3.25
2023-05-19T19:07:41.823Z,3.78
2023-05-19T19:11:43.754Z,2.72
2023-05-19T19:15:45.660Z,3.00
2023-05-19T19:19:47.598Z,4.00
2023-05-19T19:23:50.657Z,3.05
2023-05-19T19:27:52.468Z,4.68
2023-05-19T19:31:54.313Z,4.20
2023-05-19T19:35:56.530Z,3.67
2023-05-19T19:39:58.381Z,3.70
2023-05-19T19:44:00.249Z,3.25
2023-05-19T19:48:02.125Z,4.38
2023-05-19T19:52:04.179Z,3.47
2023-05-19T19:56:06.208Z,3.95
2023-05-19T20:00:09.138Z,4.30
2023-05-19T20:04:11.341Z,4.40
2023-05-19T20:08:15.415Z,4.47
2023-05-19T20:12:17.975Z,3.65
2023-05-19T20:16:19.932Z,3.97
2023-05-19T20:20:21.971Z,5.22
2023-05-19T20:24:23.755Z,8.10
2023-05-19T20:28:25.921Z,4.63
2023-05-19T20:32:27.810Z,6.20
2023-05-19T20:36:29.734Z,4.63
2023-05-19T20:40:32.386Z,3.50
2023-05-19T20:44:34.207Z,6.18
2023-05-19T20:48:36.289Z,5.22
2023-05-19T20:52:38.146Z,4.75
2023-05-19T20:56:39.952Z,4.38
2023-05-19T21:00:41.747Z,4.55
2023-05-19T21:04:44.835Z,4.45
2023-05-19T21:08:46.758Z,5.75
2023-05-19T21:12:48.659Z,3.75
2023-05-19T21:16:53.801Z,4.97
2023-05-19T21:20:55.647Z,4.43
2023-05-19T21:24:57.561Z,5.07
2023-05-19T21:28:59.440Z,4.55
2023-05-19T21:33:01.303Z,3.45
2023-05-19T21:37:03.234Z,3.92
2023-05-19T21:41:05.088Z,4.35
2023-05-19T21:45:07.391Z,5.00
2023-05-19T21:49:09.239Z,3.20
2023-05-19T21:53:11.090Z,5.43
2023-05-19T21:57:12.954Z,5.38
2023-05-19T22:01:14.791Z,5.13
2023-05-19T22:05:17.465Z,4.45
2023-05-19T22:09:19.328Z,3.97
2023-05-19T22:13:21.756Z,3.88
2023-05-19T22:17:23.599Z,3.80
2023-05-19T22:21:25.433Z,5.10
2023-05-19T22:25:27.932Z,3.95
2023-05-19T22:29:29.759Z,5.65
2023-05-19T22:33:31.597Z,5.70
2023-05-19T22:37:33.439Z,6.00
2023-05-19T22:41:35.295Z,4.15
2023-05-19T22:45:37.304Z,3.45
2023-05-19T22:49:40.897Z,3.80
2023-05-19T22:53:44.568Z,4.45
2023-05-19T22:57:46.334Z,3.13
2023-05-19T23:01:48.149Z,4.88
2023-05-19T23:05:50.102Z,5.45
2023-05-19T23:09:51.990Z,3.60
2023-05-19T23:13:53.935Z,3.30
2023-05-19T23:17:55.863Z,6.70
2023-05-19T23:21:57.782Z,4.90
2023-05-19T23:25:59.605Z,6.35
2023-05-19T23:30:01.546Z,5.45
2023-05-19T23:34:03.615Z,4.25
2023-05-19T23:38:05.507Z,4.35
2023-05-19T23:42:07.340Z,5.00
2023-05-19T23:46:09.258Z,5.97
2023-05-19T23:50:11.380Z,5.78
2023-05-19T23:54:13.168Z,4.55
2023-05-19T23:58:16.004Z,5.10
